createdAt,value
2019-04-21T10:23:35.885Z,20.90
2019-04-21T10:26:22.134Z,20.80
2019-04-21T10:29:29.428Z,20.80
2019-04-21T10:32:32.394Z,21.00
2019-04-21T10:35:39.286Z,21.20
2019-04-21T10:38:48.749Z,21.30
2019-04-21T10:41:51.156Z,21.40
2019-04-21T10:44:56.618Z,21.40
2019-04-21T10:48:00.937Z,21.60
2019-04-21T10:51:05.342Z,21.40
2019-04-21T10:54:09.393Z,21.20
2019-04-21T10:57:16.638Z,21.10
2019-04-21T11:00:26.166Z,21.10
2019-04-21T11:03:33.261Z,21.20
2019-04-21T11:06:38.797Z,21.10
2019-04-21T11:09:44.262Z,21.10
2019-04-21T11:12:48.375Z,21.10
2019-04-21T11:15:52.974Z,21.20
2019-04-21T11:18:57.960Z,21.10
2019-04-21T11:22:20.899Z,21.10
2019-04-21T11:25:26.234Z,21.10
2019-04-21T11:28:31.210Z,21.00
2019-04-21T11:31:36.783Z,20.90
2019-04-21T11:34:41.301Z,21.00
2019-04-21T11:37:48.259Z,21.00
2019-04-21T11:40:52.178Z,21.00
2019-04-21T11:43:57.094Z,21.10
2019-04-21T11:47:02.732Z,21.10
2019-04-21T11:50:07.400Z,21.30
2019-04-21T11:53:12.731Z,21.30
2019-04-21T11:56:17.195Z,21.30
2019-04-21T11:59:21.787Z,21.30
2019-04-21T12:02:27.931Z,21.30
2019-04-21T12:05:33.041Z,21.30
2019-04-21T12:08:42.188Z,21.30
2019-04-21T12:11:43.238Z,21.30
2019-04-21T12:14:50.186Z,21.20
2019-04-21T12:17:54.447Z,21.20
2019-04-21T12:20:58.519Z,21.20
2019-04-21T12:24:02.686Z,21.20
2019-04-21T12:27:07.883Z,21.30
2019-04-21T12:34:14.090Z,21.20
2019-04-21T12:37:19.242Z,21.30
2019-04-21T12:40:24.328Z,21.30
2019-04-21T12:43:28.597Z,21.30
2019-04-21T12:46:33.877Z,21.30
2019-04-21T12:49:38.068Z,21.30
2019-04-21T12:52:45.075Z,21.30
2019-04-21T12:55:49.945Z,21.30
2019-04-21T12:58:55.350Z,21.20
2019-04-21T13:01:59.440Z,21.20
2019-04-21T13:05:04.423Z,21.20
2019-04-21T13:08:09.212Z,21.30
2019-04-21T13:11:13.242Z,21.30
2019-04-21T13:14:17.877Z,21.30
2019-04-21T13:17:21.793Z,21.30
2019-04-21T13:20:25.771Z,21.30
2019-04-21T13:23:31.234Z,21.30
2019-04-21T13:26:42.959Z,21.40
2019-04-21T13:29:44.044Z,21.30
2019-04-21T13:32:49.251Z,21.30
2019-04-21T13:35:53.209Z,21.30
2019-04-21T13:39:35.966Z,21.30
2019-04-21T13:42:23.430Z,21.20
2019-04-21T13:45:18.332Z,21.20
2019-04-21T13:48:24.355Z,21.30
2019-04-21T13:51:29.239Z,21.30
2019-04-21T13:54:33.848Z,21.30
2019-04-21T13:57:38.793Z,21.30
2019-04-21T14:00:42.953Z,21.30
2019-04-21T14:03:47.282Z,21.30
2019-04-21T14:06:54.257Z,21.20
2019-04-21T14:10:04.373Z,21.30
2019-04-21T14:13:06.614Z,21.30
2019-04-21T14:16:11.817Z,21.20
2019-04-21T14:19:16.948Z,21.20
2019-04-21T14:22:23.913Z,21.20
2019-04-21T14:25:29.884Z,21.10
2019-04-21T14:28:33.961Z,21.10
2019-04-21T14:31:38.254Z,21.10
2019-04-21T14:34:43.988Z,21.00
2019-04-21T14:37:48.808Z,21.10
2019-04-21T14:40:52.847Z,21.10
2019-04-21T14:43:58.523Z,21.10
2019-04-21T14:47:23.129Z,21.20
2019-04-21T14:50:38.419Z,21.30
2019-04-21T14:53:47.799Z,21.30
2019-04-21T14:56:51.628Z,21.20
2019-04-21T14:59:57.208Z,21.10
2019-04-21T15:03:03.717Z,21.10
2019-04-21T15:06:07.828Z,21.10
2019-04-21T15:09:13.363Z,21.10
2019-04-21T15:12:18.282Z,21.10
2019-04-21T15:15:23.399Z,21.00
2019-04-21T15:18:28.578Z,21.00
2019-04-21T15:21:33.870Z,21.00
2019-04-21T15:24:40.468Z,20.90
2019-04-21T15:27:45.103Z,20.90
2019-04-21T15:30:50.480Z,20.90
2019-04-21T15:33:54.936Z,21.00
2019-04-21T15:36:59.877Z,21.00
2019-04-21T15:40:19.281Z,20.90
2019-04-21T15:43:15.095Z,20.90
2019-04-21T15:46:20.442Z,20.90
2019-04-21T15:49:28.327Z,20.90
2019-04-21T15:52:33.860Z,20.90
2019-04-21T15:55:42.975Z,20.80
2019-04-21T15:58:58.823Z,20.80
2019-04-21T16:02:06.284Z,20.80
2019-04-21T16:05:10.842Z,20.80
2019-04-21T16:08:16.276Z,20.80
2019-04-21T16:11:24.035Z,20.80
2019-04-21T16:14:29.034Z,20.80
2019-04-21T16:17:35.207Z,20.70
2019-04-21T16:20:39.855Z,20.70
2019-04-21T16:23:44.530Z,20.70
2019-04-21T16:26:48.807Z,20.70
2019-04-21T16:29:53.958Z,20.70
2019-04-21T16:32:57.878Z,20.70
2019-04-21T16:36:02.758Z,20.70
2019-04-21T16:39:09.516Z,20.70
2019-04-21T16:42:14.251Z,20.60
2019-04-21T16:45:18.918Z,20.60
2019-04-21T16:48:23.568Z,20.50
2019-04-21T16:51:28.595Z,20.40
2019-04-21T16:54:33.610Z,20.40
2019-04-21T16:57:39.812Z,20.40
2019-04-21T17:00:56.911Z,20.40
2019-04-21T17:03:52.662Z,20.40
2019-04-21T17:06:56.855Z,20.30
2019-04-21T17:10:00.715Z,20.20
2019-04-21T17:13:09.889Z,20.30
2019-04-21T17:16:44.706Z,20.30
2019-04-21T17:19:27.821Z,20.20
2019-04-21T17:22:27.838Z,20.20
2019-04-21T17:25:32.299Z,20.10
2019-04-21T17:28:36.666Z,20.10
2019-04-21T17:31:41.623Z,20.00
2019-04-21T17:34:45.873Z,20.00
2019-04-21T17:37:52.087Z,19.90
2019-04-21T17:41:09.405Z,19.80
2019-04-21T17:44:02.770Z,19.70
2019-04-21T17:47:21.788Z,19.70
2019-04-21T17:49:37.175Z,19.60
2019-04-21T17:52:16.838Z,19.60
2019-04-21T17:55:09.162Z,19.60
2019-04-21T17:57:52.111Z,19.50
2019-04-21T18:00:23.954Z,19.50
2019-04-21T18:02:47.815Z,19.40
2019-04-21T18:05:19.434Z,19.40
2019-04-21T18:07:58.619Z,19.30
2019-04-21T18:10:07.784Z,19.30
2019-04-21T18:12:35.986Z,19.30
2019-04-21T18:15:03.975Z,19.30
2019-04-21T18:17:18.448Z,19.20
2019-04-21T18:19:47.498Z,19.10
2019-04-21T18:22:28.438Z,19.10
2019-04-21T18:24:59.271Z,19.00
2019-04-21T18:27:21.802Z,19.00
2019-04-21T18:29:52.249Z,18.90
2019-04-21T18:32:26.375Z,18.80
2019-04-21T18:34:55.227Z,18.80
2019-04-21T18:37:38.312Z,18.80
2019-04-21T18:40:06.824Z,18.80
2019-04-21T18:42:47.812Z,18.80
2019-04-21T18:45:41.419Z,18.80
2019-04-21T18:47:55.467Z,18.70
2019-04-21T18:50:29.382Z,18.60
2019-04-21T18:53:13.439Z,18.50
2019-04-21T18:55:34.361Z,18.40
2019-04-21T18:57:56.510Z,18.30
2019-04-21T19:00:30.695Z,18.30
2019-04-21T19:02:57.630Z,18.20
2019-04-21T19:05:24.564Z,18.20
2019-04-21T19:08:08.923Z,18.20
2019-04-21T19:10:43.534Z,18.10
2019-04-21T19:13:32.631Z,18.00
2019-04-21T19:15:34.320Z,18.00
2019-04-21T19:20:34.854Z,17.90
2019-04-21T19:22:57.014Z,17.80
2019-04-21T19:25:39.228Z,17.80
2019-04-21T19:28:03.462Z,17.80
2019-04-21T19:30:38.498Z,17.80
2019-04-21T19:32:58.385Z,17.60
2019-04-21T19:35:07.856Z,17.50
2019-04-21T19:37:43.963Z,17.50
2019-04-21T19:40:17.537Z,17.40
2019-04-21T19:42:45.336Z,17.40
2019-04-21T19:45:17.634Z,17.30
2019-04-21T19:47:56.712Z,17.30
2019-04-21T19:50:23.464Z,17.20
2019-04-21T19:52:44.010Z,17.20
2019-04-21T19:55:04.504Z,17.20
2019-04-21T19:57:31.309Z,17.10
2019-04-21T20:00:00.320Z,17.00
2019-04-21T20:02:26.802Z,16.90
2019-04-21T20:05:03.115Z,16.90
2019-04-21T20:07:36.288Z,16.90
2019-04-21T20:10:14.319Z,16.90
2019-04-21T20:12:39.833Z,16.80
2019-04-21T20:15:16.716Z,16.80
2019-04-21T20:17:35.155Z,16.80
2019-04-21T20:19:45.853Z,16.70
2019-04-21T20:22:12.597Z,16.60
2019-04-21T20:24:49.915Z,16.60
2019-04-21T20:27:17.715Z,16.60
2019-04-21T20:29:57.922Z,16.50
2019-04-21T20:32:38.196Z,16.60
2019-04-21T20:34:56.139Z,16.50
2019-04-21T20:37:21.204Z,16.40
2019-04-21T20:39:45.624Z,16.40
2019-04-21T20:42:16.582Z,16.40
2019-04-21T20:44:45.155Z,16.40
2019-04-21T20:47:07.418Z,16.30
2019-04-21T20:49:35.230Z,16.20
2019-04-21T20:52:17.255Z,16.10
2019-04-21T20:54:43.718Z,16.10
2019-04-21T20:57:06.229Z,16.10
2019-04-21T20:59:35.680Z,16.10
2019-04-21T21:02:07.021Z,16.00
2019-04-21T21:04:28.012Z,16.10
2019-04-21T21:07:06.205Z,16.10
2019-04-21T21:09:29.325Z,16.10
2019-04-21T21:12:15.589Z,16.10
2019-04-21T21:14:27.913Z,16.00
2019-04-21T21:16:58.510Z,15.90
2019-04-21T21:19:33.320Z,15.80
2019-04-21T21:21:48.584Z,15.90
2019-04-21T21:24:24.612Z,15.90
2019-04-21T21:26:53.988Z,15.80
2019-04-21T21:29:20.853Z,15.70
2019-04-21T21:31:48.869Z,15.80
2019-04-21T21:34:25.749Z,15.80
2019-04-21T21:36:51.046Z,15.80
2019-04-21T21:39:12.729Z,15.70
2019-04-21T21:41:31.891Z,15.70
2019-04-21T21:44:03.894Z,15.60
2019-04-21T21:46:35.538Z,15.60
2019-04-21T21:49:01.947Z,15.60
2019-04-21T21:51:33.055Z,15.70
2019-04-21T21:53:46.937Z,15.70
2019-04-21T21:56:14.500Z,15.90
2019-04-21T21:58:43.976Z,15.80
2019-04-21T22:01:13.194Z,15.90
2019-04-21T22:03:45.150Z,15.80
2019-04-21T22:06:13.899Z,15.80
2019-04-21T22:08:40.583Z,15.80
2019-04-21T22:11:07.262Z,15.80
2019-04-21T22:13:46.938Z,15.80
2019-04-21T22:16:10.413Z,15.80
2019-04-21T22:18:56.532Z,15.80
2019-04-21T22:21:17.303Z,15.70
2019-04-21T22:23:39.856Z,15.80
2019-04-21T22:26:01.039Z,15.80
2019-04-21T22:28:30.099Z,15.80
2019-04-21T22:30:57.091Z,15.80
2019-04-21T22:33:25.906Z,15.80
2019-04-21T22:36:02.294Z,15.80
2019-04-21T22:38:38.588Z,15.70
2019-04-21T22:41:02.941Z,15.80
2019-04-21T22:43:26.368Z,15.70
2019-04-21T22:45:47.340Z,15.80
2019-04-21T22:48:19.189Z,15.80
2019-04-21T22:50:44.443Z,15.70
2019-04-21T22:53:13.764Z,15.70
2019-04-21T22:55:40.844Z,15.80
2019-04-21T22:58:09.609Z,15.80
2019-04-21T23:00:41.366Z,15.80
2019-04-21T23:03:10.685Z,15.70
2019-04-21T23:05:37.530Z,15.60
2019-04-21T23:08:06.555Z,15.60
2019-04-21T23:10:31.557Z,15.70
2019-04-21T23:13:05.722Z,15.60
2019-04-21T23:15:34.626Z,15.60
2019-04-21T23:18:12.991Z,15.60
2019-04-21T23:20:46.555Z,15.60
2019-04-21T23:23:15.112Z,15.60
2019-04-21T23:25:40.504Z,15.50
2019-04-21T23:28:09.115Z,15.40
2019-04-21T23:30:45.425Z,15.40
2019-04-21T23:32:57.004Z,15.40
2019-04-21T23:35:25.759Z,15.50
2019-04-21T23:37:51.036Z,15.40
2019-04-21T23:40:19.900Z,15.40
2019-04-21T23:42:45.316Z,15.30
2019-04-21T23:45:12.405Z,15.40
2019-04-21T23:47:46.857Z,15.40
2019-04-21T23:50:19.940Z,15.30
2019-04-21T23:52:37.377Z,15.30
2019-04-21T23:55:05.238Z,15.30
2019-04-21T23:57:38.013Z,15.30
